sensor_id;sensor_type;location;lat;lon;timestamp;pressure;altitude;pressure_sealevel;temperature;humidity
15870;BME280;8034;51.442;-0.522;2022-07-03T00:04:31;101826.11;;;16.05;100.00
15870;BME280;8034;51.442;-0.522;2022-07-03T00:10:16;101825.73;;;15.90;100.00
15870;BME280;8034;51.442;-0.522;2022-07-03T00:16:01;101822.09;;;15.89;100.00
15870;BME280;8034;51.442;-0.522;2022-07-03T00:21:48;101825.50;;;15.84;100.00
15870;BME280;8034;51.442;-0.522;2022-07-03T00:27:39;101823.08;;;15.75;100.00
15870;BME280;8034;51.442;-0.522;2022-07-03T00:33:27;101814.84;;;15.60;100.00
15870;BME280;8034;51.442;-0.522;2022-07-03T00:39:13;101824.62;;;15.28;100.00
15870;BME280;8034;51.442;-0.522;2022-07-03T00:45:00;101826.30;;;15.29;100.00
15870;BME280;8034;51.442;-0.522;2022-07-03T00:50:50;101815.28;;;15.07;100.00
15870;BME280;8034;51.442;-0.522;2022-07-03T00:56:46;101824.48;;;15.12;100.00
15870;BME280;8034;51.442;-0.522;2022-07-03T01:02:34;101825.88;;;14.73;100.00
15870;BME280;8034;51.442;-0.522;2022-07-03T01:05:10;101824.17;;;14.77;100.00
15870;BME280;8034;51.442;-0.522;2022-07-03T01:07:46;101824.17;;;14.77;100.00
15870;BME280;8034;51.442;-0.522;2022-07-03T01:10:22;101825.09;;;14.65;100.00
15870;BME280;8034;51.442;-0.522;2022-07-03T01:16:16;101832.39;;;14.61;100.00
15870;BME280;8034;51.442;-0.522;2022-07-03T01:22:14;101835.45;;;14.59;100.00
15870;BME280;8034;51.442;-0.522;2022-07-03T01:24:55;101846.67;;;14.57;100.00
15870;BME280;8034;51.442;-0.522;2022-07-03T01:30:46;101835.53;;;14.47;100.00
15870;BME280;8034;51.442;-0.522;2022-07-03T01:36:34;101844.55;;;14.21;100.00
15870;BME280;8034;51.442;-0.522;2022-07-03T01:42:20;101846.78;;;14.27;100.00
15870;BME280;8034;51.442;-0.522;2022-07-03T01:48:08;101849.30;;;14.36;100.00
15870;BME280;8034;51.442;-0.522;2022-07-03T01:53:55;101859.17;;;14.03;100.00
15870;BME280;8034;51.442;-0.522;2022-07-03T01:59:41;101855.79;;;14.11;100.00
15870;BME280;8034;51.442;-0.522;2022-07-03T02:05:33;101851.84;;;14.20;100.00
15870;BME280;8034;51.442;-0.522;2022-07-03T02:11:22;101857.50;;;13.92;100.00
15870;BME280;8034;51.442;-0.522;2022-07-03T02:17:15;101854.97;;;14.00;100.00
15870;BME280;8034;51.442;-0.522;2022-07-03T02:19:52;101858.92;;;13.89;100.00
15870;BME280;8034;51.442;-0.522;2022-07-03T02:25:37;101853.28;;;14.04;100.00
15870;BME280;8034;51.442;-0.522;2022-07-03T02:31:26;101841.56;;;13.95;100.00
15870;BME280;8034;51.442;-0.522;2022-07-03T02:37:15;101839.39;;;13.82;100.00
15870;BME280;8034;51.442;-0.522;2022-07-03T02:43:18;101841.93;;;13.73;100.00
15870;BME280;8034;51.442;-0.522;2022-07-03T02:45:49;101854.24;;;13.52;100.00
15870;BME280;8034;51.442;-0.522;2022-07-03T02:48:27;101849.19;;;13.61;100.00
15870;BME280;8034;51.442;-0.522;2022-07-03T02:50:58;101847.50;;;13.65;100.00
15870;BME280;8034;51.442;-0.522;2022-07-03T02:53:35;101844.45;;;13.64;100.00
15870;BME280;8034;51.442;-0.522;2022-07-03T02:59:27;101848.94;;;13.43;100.00
15870;BME280;8034;51.442;-0.522;2022-07-03T03:05:20;101850.87;;;13.45;100.00
15870;BME280;8034;51.442;-0.522;2022-07-03T03:07:54;101855.35;;;13.46;100.00
15870;BME280;8034;51.442;-0.522;2022-07-03T03:13:39;101842.52;;;13.37;100.00
15870;BME280;8034;51.442;-0.522;2022-07-03T03:19:26;101832.48;;;13.39;100.00
15870;BME280;8034;51.442;-0.522;2022-07-03T03:25:12;101830.77;;;13.68;100.00
15870;BME280;8034;51.442;-0.522;2022-07-03T03:30:57;101842.25;;;13.21;100.00
15870;BME280;8034;51.442;-0.522;2022-07-03T03:36:42;101852.57;;;13.13;100.00
15870;BME280;8034;51.442;-0.522;2022-07-03T03:42:27;101840.30;;;13.16;100.00
15870;BME280;8034;51.442;-0.522;2022-07-03T03:48:12;101838.57;;;13.03;100.00
15870;BME280;8034;51.442;-0.522;2022-07-03T03:53:56;101856.12;;;12.93;100.00
15870;BME280;8034;51.442;-0.522;2022-07-03T03:59:40;101858.92;;;12.91;100.00
15870;BME280;8034;51.442;-0.522;2022-07-03T04:05:27;101868.36;;;12.79;100.00
15870;BME280;8034;51.442;-0.522;2022-07-03T04:11:14;101866.61;;;12.48;100.00
15870;BME280;8034;51.442;-0.522;2022-07-03T04:16:58;101873.38;;;12.70;100.00
15870;BME280;8034;51.442;-0.522;2022-07-03T04:22:43;101876.38;;;12.58;100.00
15870;BME280;8034;51.442;-0.522;2022-07-03T04:28:27;101870.58;;;12.72;100.00
15870;BME280;8034;51.442;-0.522;2022-07-03T04:34:12;101868.64;;;12.81;100.00
15870;BME280;8034;51.442;-0.522;2022-07-03T04:39:56;101870.87;;;12.73;100.00
15870;BME280;8034;51.442;-0.522;2022-07-03T04:45:41;101873.34;;;12.67;100.00
15870;BME280;8034;51.442;-0.522;2022-07-03T04:51:25;101879.16;;;12.48;100.00
15870;BME280;8034;51.442;-0.522;2022-07-03T04:57:09;101890.15;;;12.90;100.00
15870;BME280;8034;51.442;-0.522;2022-07-03T05:02:53;101880.67;;;13.01;100.00
15870;BME280;8034;51.442;-0.522;2022-07-03T05:08:37;101888.55;;;13.12;100.00
15870;BME280;8034;51.442;-0.522;2022-07-03T05:14:22;101881.52;;;13.09;100.00
15870;BME280;8034;51.442;-0.522;2022-07-03T05:20:09;101881.58;;;13.27;100.00
15870;BME280;8034;51.442;-0.522;2022-07-03T05:26:11;101898.32;;;13.40;100.00
15870;BME280;8034;51.442;-0.522;2022-07-03T05:31:56;101894.44;;;13.38;100.00
15870;BME280;8034;51.442;-0.522;2022-07-03T05:37:40;101898.06;;;13.51;100.00
15870;BME280;8034;51.442;-0.522;2022-07-03T05:43:25;101905.58;;;13.66;100.00
15870;BME280;8034;51.442;-0.522;2022-07-03T05:49:09;101900.27;;;13.80;100.00
15870;BME280;8034;51.442;-0.522;2022-07-03T05:54:53;101881.78;;;14.11;100.00
15870;BME280;8034;51.442;-0.522;2022-07-03T06:00:38;101882.33;;;14.16;100.00
15870;BME280;8034;51.442;-0.522;2022-07-03T06:06:22;101883.67;;;14.26;100.00
15870;BME280;8034;51.442;-0.522;2022-07-03T06:12:08;101883.33;;;14.53;100.00
15870;BME280;8034;51.442;-0.522;2022-07-03T06:17:53;101888.05;;;14.57;100.00
15870;BME280;8034;51.442;-0.522;2022-07-03T06:23:39;101880.70;;;14.74;100.00
15870;BME280;8034;51.442;-0.522;2022-07-03T06:29:23;101884.90;;;15.18;100.00
15870;BME280;8034;51.442;-0.522;2022-07-03T06:35:08;101876.09;;;15.32;100.00
15870;BME280;8034;51.442;-0.522;2022-07-03T06:40:53;101877.14;;;15.41;100.00
15870;BME280;8034;51.442;-0.522;2022-07-03T06:46:37;101863.90;;;15.55;100.00
15870;BME280;8034;51.442;-0.522;2022-07-03T06:52:21;101868.55;;;16.19;100.00
15870;BME280;8034;51.442;-0.522;2022-07-03T06:54:53;101871.55;;;16.02;100.00
15870;BME280;8034;51.442;-0.522;2022-07-03T07:00:38;101867.28;;;16.30;100.00
15870;BME280;8034;51.442;-0.522;2022-07-03T07:06:22;101874.44;;;15.94;100.00
15870;BME280;8034;51.442;-0.522;2022-07-03T07:12:09;101884.53;;;15.92;100.00
15870;BME280;8034;51.442;-0.522;2022-07-03T07:17:53;101881.27;;;16.12;100.00
15870;BME280;8034;51.442;-0.522;2022-07-03T07:23:38;101895.09;;;16.27;100.00
15870;BME280;8034;51.442;-0.522;2022-07-03T07:29:23;101889.05;;;16.41;100.00
15870;BME280;8034;51.442;-0.522;2022-07-03T07:35:09;101891.61;;;16.61;100.00
15870;BME280;8034;51.442;-0.522;2022-07-03T07:40:53;101888.22;;;16.86;100.00
15870;BME280;8034;51.442;-0.522;2022-07-03T07:46:38;101890.25;;;17.17;100.00
15870;BME280;8034;51.442;-0.522;2022-07-03T07:52:22;101898.94;;;17.88;100.00
15870;BME280;8034;51.442;-0.522;2022-07-03T07:58:08;101904.08;;;18.41;100.00
15870;BME280;8034;51.442;-0.522;2022-07-03T08:03:53;101898.42;;;18.57;100.00
15870;BME280;8034;51.442;-0.522;2022-07-03T08:09:54;101903.21;;;18.43;100.00
15870;BME280;8034;51.442;-0.522;2022-07-03T08:15:38;101905.45;;;18.43;100.00
15870;BME280;8034;51.442;-0.522;2022-07-03T08:21:23;101901.59;;;18.80;100.00
15870;BME280;8034;51.442;-0.522;2022-07-03T08:27:08;101904.52;;;18.34;100.00
15870;BME280;8034;51.442;-0.522;2022-07-03T08:32:53;101901.67;;;18.64;100.00
15870;BME280;8034;51.442;-0.522;2022-07-03T08:38:38;101896.83;;;19.39;100.00
15870;BME280;8034;51.442;-0.522;2022-07-03T08:44:23;101904.41;;;18.80;100.00
15870;BME280;8034;51.442;-0.522;2022-07-03T08:50:11;101907.23;;;18.67;100.00
15870;BME280;8034;51.442;-0.522;2022-07-03T08:55:56;101897.98;;;18.52;100.00
15870;BME280;8034;51.442;-0.522;2022-07-03T09:01:40;101891.41;;;19.87;100.00
15870;BME280;8034;51.442;-0.522;2022-07-03T09:07:28;101884.72;;;20.36;100.00
15870;BME280;8034;51.442;-0.522;2022-07-03T09:13:14;101880.00;;;20.62;100.00
15870;BME280;8034;51.442;-0.522;2022-07-03T09:18:58;101882.23;;;20.71;100.00
15870;BME280;8034;51.442;-0.522;2022-07-03T09:24:53;101887.53;;;19.94;100.00
15870;BME280;8034;51.442;-0.522;2022-07-03T09:30:38;101897.48;;;19.36;100.00
15870;BME280;8034;51.442;-0.522;2022-07-03T09:36:36;101903.19;;;19.08;100.00
15870;BME280;8034;51.442;-0.522;2022-07-03T09:45:15;101890.95;;;19.93;100.00
15870;BME280;8034;51.442;-0.522;2022-07-03T09:47:45;101892.69;;;20.12;100.00
15870;BME280;8034;51.442;-0.522;2022-07-03T09:50:16;101895.55;;;20.20;100.00
15870;BME280;8034;51.442;-0.522;2022-07-03T09:52:47;101899.88;;;20.49;100.00
15870;BME280;8034;51.442;-0.522;2022-07-03T09:55:19;101886.68;;;20.55;100.00
15870;BME280;8034;51.442;-0.522;2022-07-03T09:58:00;101889.44;;;20.95;100.00
15870;BME280;8034;51.442;-0.522;2022-07-03T10:00:31;101889.81;;;21.27;100.00
15870;BME280;8034;51.442;-0.522;2022-07-03T10:03:06;101887.41;;;21.23;100.00
15870;BME280;8034;51.442;-0.522;2022-07-03T10:05:36;101900.05;;;21.17;100.00
15870;BME280;8034;51.442;-0.522;2022-07-03T10:08:08;101896.80;;;20.84;100.00
15870;BME280;8034;51.442;-0.522;2022-07-03T10:10:41;101901.42;;;20.72;100.00
15870;BME280;8034;51.442;-0.522;2022-07-03T10:13:13;101900.38;;;20.79;100.00
15870;BME280;8034;51.442;-0.522;2022-07-03T10:15:44;101898.23;;;21.02;100.00
15870;BME280;8034;51.442;-0.522;2022-07-03T10:18:14;101888.66;;;21.28;100.00
15870;BME280;8034;51.442;-0.522;2022-07-03T10:20:47;101892.80;;;21.48;100.00
15870;BME280;8034;51.442;-0.522;2022-07-03T10:23:21;101895.31;;;21.32;100.00
15870;BME280;8034;51.442;-0.522;2022-07-03T10:25:52;101885.92;;;21.26;100.00
15870;BME280;8034;51.442;-0.522;2022-07-03T10:28:23;101895.47;;;21.45;100.00
15870;BME280;8034;51.442;-0.522;2022-07-03T10:30:54;101897.64;;;21.48;100.00
15870;BME280;8034;51.442;-0.522;2022-07-03T10:33:25;101894.88;;;21.45;100.00
15870;BME280;8034;51.442;-0.522;2022-07-03T10:35:58;101894.72;;;21.50;100.00
15870;BME280;8034;51.442;-0.522;2022-07-03T10:38:37;101894.63;;;21.53;100.00
15870;BME280;8034;51.442;-0.522;2022-07-03T10:44:25;101895.42;;;21.10;100.00
15870;BME280;8034;51.442;-0.522;2022-07-03T10:51:11;101894.63;;;21.18;100.00
15870;BME280;8034;51.442;-0.522;2022-07-03T10:57:16;101887.66;;;21.24;100.00
15870;BME280;8034;51.442;-0.522;2022-07-03T11:06:05;101888.75;;;21.34;100.00
15870;BME280;8034;51.442;-0.522;2022-07-03T11:12:01;101890.80;;;21.49;100.00
15870;BME280;8034;51.442;-0.522;2022-07-03T11:27:49;101876.33;;;21.59;100.00
15870;BME280;8034;51.442;-0.522;2022-07-03T11:33:43;101886.08;;;21.55;100.00
15870;BME280;8034;51.442;-0.522;2022-07-03T11:39:37;101897.71;;;21.45;100.00
15870;BME280;8034;51.442;-0.522;2022-07-03T11:45:20;101897.72;;;21.37;100.00
15870;BME280;8034;51.442;-0.522;2022-07-03T11:51:07;101898.45;;;21.48;100.00
15870;BME280;8034;51.442;-0.522;2022-07-03T11:56:53;101897.77;;;21.77;100.00
15870;BME280;8034;51.442;-0.522;2022-07-03T12:02:50;101897.69;;;21.71;100.00
15870;BME280;8034;51.442;-0.522;2022-07-03T12:08:34;101898.69;;;21.66;100.00
15870;BME280;8034;51.442;-0.522;2022-07-03T12:14:35;101890.53;;;22.14;100.00
15870;BME280;8034;51.442;-0.522;2022-07-03T12:20:20;101902.47;;;22.05;100.00
15870;BME280;8034;51.442;-0.522;2022-07-03T12:26:04;101892.68;;;22.17;100.00
15870;BME280;8034;51.442;-0.522;2022-07-03T12:31:50;101899.95;;;22.35;100.00
15870;BME280;8034;51.442;-0.522;2022-07-03T12:37:37;101898.45;;;22.38;100.00
15870;BME280;8034;51.442;-0.522;2022-07-03T12:43:25;101895.05;;;22.30;100.00
15870;BME280;8034;51.442;-0.522;2022-07-03T12:49:10;101894.39;;;22.33;100.00
15870;BME280;8034;51.442;-0.522;2022-07-03T12:54:57;101890.03;;;22.35;100.00
15870;BME280;8034;51.442;-0.522;2022-07-03T13:00:44;101877.80;;;22.37;100.00
15870;BME280;8034;51.442;-0.522;2022-07-03T13:06:44;101881.69;;;22.39;100.00
15870;BME280;8034;51.442;-0.522;2022-07-03T13:12:29;101881.87;;;22.19;100.00
15870;BME280;8034;51.442;-0.522;2022-07-03T13:18:14;101871.13;;;22.42;100.00
15870;BME280;8034;51.442;-0.522;2022-07-03T13:23:58;101874.80;;;22.19;100.00
15870;BME280;8034;51.442;-0.522;2022-07-03T13:29:44;101873.45;;;22.16;100.00
15870;BME280;8034;51.442;-0.522;2022-07-03T13:35:29;101873.45;;;22.16;100.00
15870;BME280;8034;51.442;-0.522;2022-07-03T13:41:15;101868.15;;;22.15;100.00
15870;BME280;8034;51.442;-0.522;2022-07-03T13:47:01;101860.31;;;22.20;100.00
15870;BME280;8034;51.442;-0.522;2022-07-03T13:52:45;101860.23;;;22.38;100.00
15870;BME280;8034;51.442;-0.522;2022-07-03T13:58:29;101868.66;;;22.32;100.00
15870;BME280;8034;51.442;-0.522;2022-07-03T14:04:14;101866.03;;;22.41;100.00
15870;BME280;8034;51.442;-0.522;2022-07-03T14:09:58;101861.87;;;22.39;100.00
15870;BME280;8034;51.442;-0.522;2022-07-03T14:15:42;101867.64;;;22.36;100.00
15870;BME280;8034;51.442;-0.522;2022-07-03T14:21:27;101867.23;;;22.46;100.00
15870;BME280;8034;51.442;-0.522;2022-07-03T14:27:11;101867.63;;;22.51;100.00
15870;BME280;8034;51.442;-0.522;2022-07-03T14:33:15;101880.64;;;22.66;100.00
15870;BME280;8034;51.442;-0.522;2022-07-03T14:39:00;101877.95;;;22.41;100.00
15870;BME280;8034;51.442;-0.522;2022-07-03T14:44:44;101875.88;;;22.20;100.00
15870;BME280;8034;51.442;-0.522;2022-07-03T14:50:28;101890.40;;;22.25;100.00
15870;BME280;8034;51.442;-0.522;2022-07-03T14:56:17;101902.55;;;22.25;100.00
15870;BME280;8034;51.442;-0.522;2022-07-03T15:02:02;101901.25;;;22.23;100.00
15870;BME280;8034;51.442;-0.522;2022-07-03T15:07:59;101911.36;;;22.09;100.00
15870;BME280;8034;51.442;-0.522;2022-07-03T15:10:31;101912.05;;;22.06;100.00
15870;BME280;8034;51.442;-0.522;2022-07-03T15:16:17;101906.51;;;22.18;100.00
15870;BME280;8034;51.442;-0.522;2022-07-03T15:22:03;101903.82;;;22.22;100.00
15870;BME280;8034;51.442;-0.522;2022-07-03T15:27:51;101909.53;;;22.37;100.00
15870;BME280;8034;51.442;-0.522;2022-07-03T15:33:38;101904.92;;;22.38;100.00
15870;BME280;8034;51.442;-0.522;2022-07-03T15:39:26;101915.81;;;22.42;100.00
15870;BME280;8034;51.442;-0.522;2022-07-03T15:45:21;101911.67;;;22.40;100.00
15870;BME280;8034;51.442;-0.522;2022-07-03T15:51:15;101911.56;;;22.42;100.00
15870;BME280;8034;51.442;-0.522;2022-07-03T15:53:48;101912.00;;;22.38;100.00
15870;BME280;8034;51.442;-0.522;2022-07-03T15:56:24;101908.94;;;22.37;100.00
15870;BME280;8034;51.442;-0.522;2022-07-03T15:58:55;101909.78;;;22.38;100.00
15870;BME280;8034;51.442;-0.522;2022-07-03T16:01:29;101909.02;;;22.35;100.00
15870;BME280;8034;51.442;-0.522;2022-07-03T16:07:48;101906.73;;;22.43;100.00
15870;BME280;8034;51.442;-0.522;2022-07-03T16:13:37;101912.06;;;22.44;100.00
15870;BME280;8034;51.442;-0.522;2022-07-03T16:19:25;101912.55;;;22.46;100.00
15870;BME280;8034;51.442;-0.522;2022-07-03T16:25:10;101912.32;;;22.45;100.00
15870;BME280;8034;51.442;-0.522;2022-07-03T16:30:56;101921.73;;;22.43;100.00
15870;BME280;8034;51.442;-0.522;2022-07-03T16:36:45;101922.52;;;22.52;100.00
15870;BME280;8034;51.442;-0.522;2022-07-03T16:42:32;101917.44;;;22.52;100.00
15870;BME280;8034;51.442;-0.522;2022-07-03T16:48:22;101924.87;;;22.50;100.00
15870;BME280;8034;51.442;-0.522;2022-07-03T16:54:09;101915.63;;;22.47;100.00
15870;BME280;8034;51.442;-0.522;2022-07-03T16:59:54;101916.27;;;22.53;100.00
15870;BME280;8034;51.442;-0.522;2022-07-03T17:05:39;101910.00;;;22.39;100.00
15870;BME280;8034;51.442;-0.522;2022-07-03T17:11:24;101915.40;;;22.23;100.00
15870;BME280;8034;51.442;-0.522;2022-07-03T17:17:11;101914.62;;;22.05;100.00
15870;BME280;8034;51.442;-0.522;2022-07-03T17:23:00;101911.61;;;22.10;100.00
15870;BME280;8034;51.442;-0.522;2022-07-03T17:28:51;101911.91;;;21.94;100.00
15870;BME280;8034;51.442;-0.522;2022-07-03T17:34:38;101916.79;;;21.83;100.00
15870;BME280;8034;51.442;-0.522;2022-07-03T17:40:26;101917.41;;;21.73;100.00
15870;BME280;8034;51.442;-0.522;2022-07-03T17:46:12;101913.73;;;21.82;100.00
15870;BME280;8034;51.442;-0.522;2022-07-03T17:51:58;101907.83;;;21.80;100.00
15870;BME280;8034;51.442;-0.522;2022-07-03T17:57:43;101924.64;;;21.77;100.00
15870;BME280;8034;51.442;-0.522;2022-07-03T18:03:30;101926.48;;;22.45;100.00
15870;BME280;8034;51.442;-0.522;2022-07-03T18:09:19;101926.55;;;21.70;100.00
15870;BME280;8034;51.442;-0.522;2022-07-03T18:15:11;101920.07;;;21.53;100.00
15870;BME280;8034;51.442;-0.522;2022-07-03T18:20:58;101932.73;;;21.38;100.00
15870;BME280;8034;51.442;-0.522;2022-07-03T18:26:46;101933.12;;;21.17;100.00
15870;BME280;8034;51.442;-0.522;2022-07-03T18:32:34;101932.88;;;21.16;100.00
15870;BME280;8034;51.442;-0.522;2022-07-03T18:38:22;101936.55;;;21.05;100.00
15870;BME280;8034;51.442;-0.522;2022-07-03T18:44:10;101931.67;;;20.80;100.00
15870;BME280;8034;51.442;-0.522;2022-07-03T18:49:55;101934.97;;;20.65;100.00
15870;BME280;8034;51.442;-0.522;2022-07-03T18:55:48;101936.17;;;20.53;100.00
15870;BME280;8034;51.442;-0.522;2022-07-03T19:01:43;101933.62;;;20.42;100.00
15870;BME280;8034;51.442;-0.522;2022-07-03T19:07:41;101930.81;;;20.62;100.00
15870;BME280;8034;51.442;-0.522;2022-07-03T19:13:28;101934.24;;;20.70;100.00
15870;BME280;8034;51.442;-0.522;2022-07-03T19:19:15;101931.30;;;20.64;100.00
15870;BME280;8034;51.442;-0.522;2022-07-03T19:25:02;101923.67;;;20.65;100.00
15870;BME280;8034;51.442;-0.522;2022-07-03T19:30:46;101944.73;;;20.59;100.00
15870;BME280;8034;51.442;-0.522;2022-07-03T19:36:31;101938.55;;;20.48;100.00
15870;BME280;8034;51.442;-0.522;2022-07-03T19:42:15;101936.97;;;20.44;100.00
15870;BME280;8034;51.442;-0.522;2022-07-03T19:48:01;101943.28;;;20.50;100.00
15870;BME280;8034;51.442;-0.522;2022-07-03T19:53:45;101951.20;;;19.97;100.00
15870;BME280;8034;51.442;-0.522;2022-07-03T19:59:29;101960.42;;;20.00;100.00
15870;BME280;8034;51.442;-0.522;2022-07-03T20:05:13;101964.23;;;20.16;100.00
15870;BME280;8034;51.442;-0.522;2022-07-03T20:10:58;101977.77;;;20.16;100.00
15870;BME280;8034;51.442;-0.522;2022-07-03T20:16:43;101983.48;;;20.03;100.00
15870;BME280;8034;51.442;-0.522;2022-07-03T20:22:27;101991.75;;;19.77;100.00
15870;BME280;8034;51.442;-0.522;2022-07-03T20:28:12;102001.70;;;19.74;100.00
15870;BME280;8034;51.442;-0.522;2022-07-03T20:33:58;102010.73;;;19.74;100.00
15870;BME280;8034;51.442;-0.522;2022-07-03T20:39:43;102015.87;;;19.83;100.00
15870;BME280;8034;51.442;-0.522;2022-07-03T20:45:28;102027.84;;;19.66;100.00
15870;BME280;8034;51.442;-0.522;2022-07-03T20:51:13;102040.63;;;19.61;100.00
15870;BME280;8034;51.442;-0.522;2022-07-03T20:57:01;102037.13;;;19.78;100.00
15870;BME280;8034;51.442;-0.522;2022-07-03T21:02:46;102043.80;;;19.71;100.00
15870;BME280;8034;51.442;-0.522;2022-07-03T21:08:32;102056.02;;;19.55;100.00
15870;BME280;8034;51.442;-0.522;2022-07-03T21:14:17;102065.30;;;19.42;100.00
15870;BME280;8034;51.442;-0.522;2022-07-03T21:20:08;102077.11;;;19.17;100.00
15870;BME280;8034;51.442;-0.522;2022-07-03T21:25:52;102088.05;;;19.18;100.00
15870;BME280;8034;51.442;-0.522;2022-07-03T21:31:37;102080.86;;;19.12;100.00
15870;BME280;8034;51.442;-0.522;2022-07-03T21:37:23;102076.47;;;19.06;100.00
15870;BME280;8034;51.442;-0.522;2022-07-03T21:43:07;102086.88;;;18.92;100.00
15870;BME280;8034;51.442;-0.522;2022-07-03T21:48:52;102087.91;;;18.69;100.00
15870;BME280;8034;51.442;-0.522;2022-07-03T21:54:37;102081.05;;;18.58;100.00
15870;BME280;8034;51.442;-0.522;2022-07-03T22:00:21;102085.55;;;18.25;100.00
15870;BME280;8034;51.442;-0.522;2022-07-03T22:06:06;102103.41;;;18.17;100.00
15870;BME280;8034;51.442;-0.522;2022-07-03T22:11:51;102098.34;;;18.17;100.00
15870;BME280;8034;51.442;-0.522;2022-07-03T22:17:54;102105.66;;;17.99;100.00
15870;BME280;8034;51.442;-0.522;2022-07-03T22:23:38;102102.84;;;17.62;100.00
15870;BME280;8034;51.442;-0.522;2022-07-03T22:29:23;102105.48;;;17.72;100.00
15870;BME280;8034;51.442;-0.522;2022-07-03T22:35:09;102109.13;;;17.75;100.00
15870;BME280;8034;51.442;-0.522;2022-07-03T22:40:54;102115.41;;;17.43;100.00
15870;BME280;8034;51.442;-0.522;2022-07-03T22:46:38;102120.88;;;17.58;100.00
15870;BME280;8034;51.442;-0.522;2022-07-03T22:52:25;102113.32;;;17.54;100.00
15870;BME280;8034;51.442;-0.522;2022-07-03T22:58:10;102120.47;;;17.44;100.00
15870;BME280;8034;51.442;-0.522;2022-07-03T23:03:54;102110.77;;;17.76;100.00
15870;BME280;8034;51.442;-0.522;2022-07-03T23:09:39;102109.33;;;17.36;100.00
15870;BME280;8034;51.442;-0.522;2022-07-03T23:15:25;102109.55;;;17.18;100.00
15870;BME280;8034;51.442;-0.522;2022-07-03T23:21:12;102112.08;;;17.17;100.00
15870;BME280;8034;51.442;-0.522;2022-07-03T23:26:56;102117.19;;;17.13;100.00
15870;BME280;8034;51.442;-0.522;2022-07-03T23:32:41;102109.14;;;17.06;100.00
15870;BME280;8034;51.442;-0.522;2022-07-03T23:38:29;102103.38;;;16.66;100.00
15870;BME280;8034;51.442;-0.522;2022-07-03T23:44:14;102096.36;;;16.66;100.00
15870;BME280;8034;51.442;-0.522;2022-07-03T23:50:00;102101.95;;;16.37;100.00
15870;BME280;8034;51.442;-0.522;2022-07-03T23:56:02;102106.04;;;16.48;100.00
